Time;durP1;ratioP1;P1;durP2;ratioP2;P2;SDS_P1;SDS_P2;PMS_P1;PMS_P2;Temp;Humidity;BMP_temperature;BMP_pressure;BME280_temperature;BME280_humidity;BME280_pressure;Samples;Min_cycle;Max_cycle;Signal;HPM_P1;HPM_P2
2023/09/10 00:01:11;;;;;;;11.60;4.90;;;18.10;99.90;;;;;;5090793;28;20533;-61
2023/09/10 00:03:38;;;;;;;11.17;5.47;;;18.10;99.90;;;;;;5091478;28;20208;-61
2023/09/10 00:06:05;;;;;;;13.80;5.57;;;18.10;99.90;;;;;;5090995;28;20196;-61
2023/09/10 00:08:31;;;;;;;13.40;5.37;;;18.00;99.90;;;;;;5091638;28;20433;-61
2023/09/10 00:10:57;;;;;;;17.70;6.00;;;18.10;99.90;;;;;;5091365;28;20419;-61
2023/09/10 00:13:24;;;;;;;7.33;4.53;;;18.00;99.90;;;;;;5090926;28;20430;-61
2023/09/10 00:15:51;;;;;;;9.60;4.73;;;18.00;99.90;;;;;;5090677;28;20532;-61
2023/09/10 00:18:16;;;;;;;12.67;4.50;;;18.00;99.90;;;;;;5091237;28;20455;-63
2023/09/10 00:20:42;;;;;;;10.80;6.40;;;18.00;99.90;;;;;;5091333;28;20863;-62
2023/09/10 00:23:08;;;;;;;8.63;4.80;;;18.00;99.90;;;;;;5090963;28;20210;-62
2023/09/10 00:25:34;;;;;;;8.90;4.77;;;18.00;99.90;;;;;;5091082;28;20176;-62
2023/09/10 00:28:00;;;;;;;12.10;4.90;;;18.00;99.90;;;;;;5083239;28;20199;-62
2023/09/10 00:30:27;;;;;;;12.87;4.90;;;18.00;99.90;;;;;;5091393;28;20871;-62
2023/09/10 00:32:53;;;;;;;12.70;5.03;;;18.00;99.90;;;;;;5090581;28;20183;-63
2023/09/10 00:35:18;;;;;;;8.63;5.07;;;18.00;99.90;;;;;;5084104;28;20431;-63
2023/09/10 00:37:44;;;;;;;11.33;4.90;;;18.00;99.90;;;;;;5090797;28;20184;-63
2023/09/10 00:40:10;;;;;;;15.83;5.30;;;17.90;99.90;;;;;;5086997;28;20180;-62
2023/09/10 00:42:37;;;;;;;10.23;4.07;;;17.90;99.90;;;;;;5090607;28;20253;-62
2023/09/10 00:45:04;;;;;;;13.00;5.40;;;17.90;99.90;;;;;;5090319;28;20176;-61
2023/09/10 00:47:31;;;;;;;9.67;6.03;;;17.80;99.90;;;;;;5090396;28;20464;-61
2023/09/10 00:49:56;;;;;;;10.60;5.77;;;17.80;99.90;;;;;;5090882;28;20967;-62
2023/09/10 00:52:23;;;;;;;7.33;4.20;;;17.80;99.90;;;;;;5090653;28;20472;-62
2023/09/10 00:54:49;;;;;;;12.40;5.63;;;17.70;99.90;;;;;;5076925;28;20207;-62
2023/09/10 00:57:16;;;;;;;8.30;5.13;;;17.70;99.90;;;;;;5090495;28;20453;-62
2023/09/10 00:59:42;;;;;;;8.83;4.27;;;17.70;99.90;;;;;;5075974;28;20509;-62
2023/09/10 01:02:09;;;;;;;8.87;5.10;;;17.70;99.90;;;;;;5089555;28;20972;-62
2023/09/10 01:04:34;;;;;;;8.73;4.77;;;17.60;99.90;;;;;;5076671;28;20906;-62
2023/09/10 01:07:01;;;;;;;7.07;5.30;;;17.60;99.90;;;;;;5090483;28;20410;-62
2023/09/10 01:09:27;;;;;;;11.60;6.03;;;17.60;99.90;;;;;;5077317;28;20573;-62
2023/09/10 01:12:04;;;;;;;10.40;5.60;;;17.60;99.90;;;;;;5090124;28;20458;-61
2023/09/10 01:14:48;;;;;;;15.00;5.07;;;17.60;99.90;;;;;;5087129;28;20184;-62
2023/09/10 01:17:29;;;;;;;12.50;5.47;;;17.60;99.90;;;;;;5094751;28;20509;-62
2023/09/10 01:20:28;;;;;;;10.47;3.80;;;17.50;99.90;;;;;;5084299;28;20450;-62
2023/09/10 01:22:57;;;;;;;10.00;4.80;;;17.40;99.90;;;;;;5081789;28;20744;-62
2023/09/10 01:25:22;;;;;;;16.87;6.20;;;17.50;99.90;;;;;;5089897;28;20487;-62
2023/09/10 01:27:48;;;;;;;9.30;4.77;;;17.40;99.90;;;;;;5082721;28;20415;-62
2023/09/10 01:30:14;;;;;;;15.70;5.87;;;17.40;99.90;;;;;;5090489;28;20285;-62
2023/09/10 01:32:51;;;;;;;17.17;6.40;;;17.40;99.90;;;;;;5088777;28;20621;-62
2023/09/10 01:35:22;;;;;;;12.23;5.13;;;17.30;99.90;;;;;;5085317;28;20217;-62
2023/09/10 01:38:00;;;;;;;12.13;5.80;;;17.40;99.90;;;;;;5083007;28;20552;-62
2023/09/10 01:40:34;;;;;;;11.93;6.13;;;17.30;99.90;;;;;;5089436;28;20426;-62
2023/09/10 01:43:02;;;;;;;9.87;6.43;;;17.30;99.90;;;;;;5098827;28;20590;-62
2023/09/10 01:45:29;;;;;;;12.50;5.60;;;17.30;99.90;;;;;;5110800;28;20492;-62
2023/09/10 01:47:55;;;;;;;14.40;6.20;;;17.30;99.90;;;;;;5093660;28;20510;-62
2023/09/10 01:50:21;;;;;;;17.80;5.60;;;17.20;99.90;;;;;;5094393;28;20505;-62
2023/09/10 01:52:46;;;;;;;12.17;6.20;;;17.20;99.90;;;;;;5093790;28;20192;-62
2023/09/10 01:55:12;;;;;;;11.77;6.07;;;17.30;99.90;;;;;;5093875;28;20422;-62
2023/09/10 01:57:37;;;;;;;11.63;4.30;;;17.30;99.90;;;;;;5093344;28;20259;-62
2023/09/10 02:00:07;;;;;;;21.87;5.57;;;17.30;99.90;;;;;;5094340;28;20188;-61
2023/09/10 02:02:33;;;;;;;9.30;5.33;;;17.30;99.90;;;;;;5093105;28;20337;-62
2023/09/10 02:04:59;;;;;;;10.77;5.53;;;17.30;99.90;;;;;;5093617;28;20513;-62
2023/09/10 02:07:25;;;;;;;13.93;5.90;;;17.30;99.90;;;;;;5094244;28;20223;-62
2023/09/10 02:09:50;;;;;;;14.20;6.53;;;17.30;99.90;;;;;;5093998;28;20418;-62
2023/09/10 02:12:16;;;;;;;11.80;5.40;;;17.30;99.90;;;;;;5093573;28;20214;-62
2023/09/10 02:14:48;;;;;;;12.03;5.13;;;17.30;99.90;;;;;;5093167;28;20542;-62
2023/09/10 02:17:13;;;;;;;9.17;4.80;;;17.30;99.90;;;;;;5093398;28;20188;-62
2023/09/10 02:19:39;;;;;;;8.23;4.43;;;17.30;99.90;;;;;;5093188;28;20426;-62
2023/09/10 02:22:04;;;;;;;11.20;4.83;;;17.30;99.90;;;;;;5093547;28;20211;-62
2023/09/10 02:24:30;;;;;;;17.90;6.00;;;17.30;99.90;;;;;;5092997;28;20193;-62
2023/09/10 02:26:55;;;;;;;11.03;5.03;;;17.20;99.90;;;;;;5088926;28;20188;-62
2023/09/10 02:29:21;;;;;;;7.93;4.70;;;17.20;99.90;;;;;;5090113;28;20184;-62
2023/09/10 02:31:47;;;;;;;11.13;6.17;;;17.20;99.90;;;;;;5093050;28;20181;-62
2023/09/10 02:34:12;;;;;;;9.40;4.70;;;17.20;99.90;;;;;;5092588;28;20199;-62
2023/09/10 02:36:38;;;;;;;9.90;5.27;;;17.20;99.90;;;;;;5093165;28;20198;-62
2023/09/10 02:39:03;;;;;;;9.27;5.47;;;17.20;99.90;;;;;;5093519;28;20191;-62
2023/09/10 02:41:29;;;;;;;10.73;4.93;;;17.20;99.90;;;;;;5092821;28;20977;-62
2023/09/10 02:43:54;;;;;;;8.97;5.70;;;17.20;99.90;;;;;;5092798;28;20218;-62
2023/09/10 02:46:20;;;;;;;7.73;4.53;;;17.10;99.90;;;;;;5092350;28;20256;-62
2023/09/10 02:48:46;;;;;;;7.80;4.33;;;17.00;99.90;;;;;;5093491;28;20172;-62
2023/09/10 02:51:11;;;;;;;14.77;5.47;;;17.00;99.90;;;;;;5092127;28;20538;-62
2023/09/10 02:53:37;;;;;;;11.20;5.27;;;17.00;99.90;;;;;;5093150;28;20184;-62
2023/09/10 02:56:03;;;;;;;15.67;5.17;;;16.90;99.90;;;;;;5092771;28;20242;-62
2023/09/10 02:58:29;;;;;;;12.53;5.07;;;17.00;99.90;;;;;;5093093;28;20255;-62
2023/09/10 03:00:55;;;;;;;9.60;5.57;;;17.00;99.90;;;;;;5092419;28;20195;-62
2023/09/10 03:03:21;;;;;;;10.53;5.17;;;17.00;99.90;;;;;;5092745;28;20532;-62
2023/09/10 03:05:47;;;;;;;8.53;4.10;;;17.00;99.90;;;;;;5092106;28;20190;-62
2023/09/10 03:08:12;;;;;;;13.60;5.13;;;17.00;99.90;;;;;;5092847;28;20415;-62
2023/09/10 03:10:38;;;;;;;8.77;5.33;;;17.00;99.90;;;;;;5092592;28;20630;-62
2023/09/10 03:13:04;;;;;;;13.20;5.17;;;16.90;99.90;;;;;;5092247;28;20268;-62
2023/09/10 03:15:29;;;;;;;9.27;4.30;;;16.90;99.90;;;;;;5092235;28;20185;-62
2023/09/10 03:17:55;;;;;;;8.00;4.97;;;16.90;99.90;;;;;;5092013;28;20208;-62
2023/09/10 03:20:21;;;;;;;12.00;5.27;;;16.90;99.90;;;;;;5078713;28;20177;-62
2023/09/10 03:22:46;;;;;;;10.13;5.90;;;16.80;99.90;;;;;;5092346;28;20669;-62
2023/09/10 03:25:12;;;;;;;9.87;4.77;;;16.80;99.90;;;;;;5091728;28;20540;-62
2023/09/10 03:27:38;;;;;;;8.53;5.20;;;16.80;99.90;;;;;;5084116;28;20259;-62
2023/09/10 03:30:07;;;;;;;9.83;5.03;;;16.70;99.90;;;;;;5092084;28;20546;-62
2023/09/10 03:32:32;;;;;;;11.37;4.73;;;16.70;99.90;;;;;;5087467;28;20650;-62
2023/09/10 03:34:58;;;;;;;7.80;4.70;;;16.60;99.90;;;;;;5088524;28;20425;-62
2023/09/10 03:37:24;;;;;;;11.70;5.60;;;16.60;99.90;;;;;;5092501;28;20181;-62
2023/09/10 03:39:49;;;;;;;8.33;5.53;;;16.60;99.90;;;;;;5090325;28;20188;-62
2023/09/10 03:42:16;;;;;;;8.90;4.70;;;16.60;99.90;;;;;;5087110;28;20458;-62
2023/09/10 03:44:42;;;;;;;10.17;4.60;;;16.60;99.90;;;;;;5102521;28;20189;-63
2023/09/10 03:47:08;;;;;;;9.50;5.10;;;16.60;99.90;;;;;;5092633;28;20910;-63
2023/09/10 03:49:33;;;;;;;10.43;5.17;;;16.60;99.90;;;;;;5099022;28;20358;-63
2023/09/10 03:51:59;;;;;;;10.03;5.03;;;16.50;99.90;;;;;;5104868;28;20713;-63
2023/09/10 03:54:25;;;;;;;8.40;4.87;;;16.50;99.90;;;;;;5095549;28;20199;-63
2023/09/10 03:56:50;;;;;;;9.73;5.20;;;16.50;99.90;;;;;;5092632;28;20281;-63
2023/09/10 03:59:16;;;;;;;8.60;4.83;;;16.50;99.90;;;;;;5092621;28;20712;-63
2023/09/10 04:01:41;;;;;;;7.97;4.17;;;16.40;99.90;;;;;;5091818;28;20273;-63
2023/09/10 04:04:07;;;;;;;8.47;4.37;;;16.40;99.90;;;;;;5091544;28;20182;-63
2023/09/10 04:06:33;;;;;;;8.90;4.60;;;16.40;99.90;;;;;;5090660;28;20192;-63
2023/09/10 04:08:59;;;;;;;11.17;5.40;;;16.40;99.90;;;;;;5098813;28;20187;-63
2023/09/10 04:11:25;;;;;;;13.30;4.83;;;16.30;99.90;;;;;;5109202;28;20756;-60
2023/09/10 04:13:50;;;;;;;11.17;5.37;;;16.30;99.90;;;;;;5095674;28;20471;-61
2023/09/10 04:16:16;;;;;;;9.17;5.83;;;16.30;99.90;;;;;;5091224;28;20188;-61
2023/09/10 04:18:43;;;;;;;9.23;4.90;;;16.30;99.90;;;;;;5092479;28;20180;-60
2023/09/10 04:21:08;;;;;;;12.00;5.33;;;16.30;99.90;;;;;;5087270;28;20176;-60
2023/09/10 04:23:34;;;;;;;11.03;6.10;;;16.20;99.90;;;;;;5090176;28;20821;-60
2023/09/10 04:26:00;;;;;;;9.23;5.47;;;16.20;99.90;;;;;;5096140;28;20593;-61
2023/09/10 04:28:26;;;;;;;8.13;4.93;;;16.20;99.90;;;;;;5088308;28;20418;-62
2023/09/10 04:30:51;;;;;;;13.00;6.13;;;16.20;99.90;;;;;;5094489;28;20172;-61
2023/09/10 04:33:17;;;;;;;11.13;5.63;;;16.20;99.90;;;;;;5099743;28;20540;-63
2023/09/10 04:35:53;;;;;;;8.80;5.47;;;16.20;99.90;;;;;;5098350;28;20176;-62
2023/09/10 04:38:19;;;;;;;16.33;5.00;;;16.20;99.90;;;;;;5094100;28;20422;-62
2023/09/10 04:40:45;;;;;;;10.77;5.07;;;16.20;99.90;;;;;;5092113;28;20419;-62
2023/09/10 04:43:10;;;;;;;6.13;3.93;;;16.10;99.90;;;;;;5091153;28;20195;-62
2023/09/10 04:45:36;;;;;;;24.13;5.70;;;16.10;99.90;;;;;;5090348;28;20180;-62
2023/09/10 04:48:02;;;;;;;8.13;5.40;;;16.10;99.90;;;;;;5093479;28;20565;-62
2023/09/10 04:50:28;;;;;;;12.20;5.07;;;16.10;99.90;;;;;;5099981;28;20528;-63
2023/09/10 04:52:54;;;;;;;8.77;5.17;;;16.00;99.90;;;;;;5097714;28;20505;-63
2023/09/10 04:55:19;;;;;;;8.03;4.60;;;16.00;99.90;;;;;;5105333;28;20184;-63
2023/09/10 04:57:46;;;;;;;9.90;5.10;;;16.10;99.90;;;;;;5093194;28;20212;-63
2023/09/10 05:00:12;;;;;;;7.20;4.70;;;16.10;99.90;;;;;;5091706;28;20648;-63
2023/09/10 05:02:37;;;;;;;14.47;5.70;;;16.10;99.90;;;;;;5090719;28;20589;-63
2023/09/10 05:05:05;;;;;;;7.90;4.70;;;16.10;99.90;;;;;;5091176;28;20427;-63
2023/09/10 05:07:30;;;;;;;12.77;6.03;;;16.10;99.90;;;;;;5091346;28;20234;-63
2023/09/10 05:09:56;;;;;;;13.67;5.70;;;16.10;99.90;;;;;;5090642;28;20887;-63
2023/09/10 05:12:22;;;;;;;8.10;4.60;;;16.10;99.90;;;;;;5098774;28;20180;-63
2023/09/10 05:14:47;;;;;;;9.70;5.13;;;16.20;99.90;;;;;;5098602;28;20721;-63
2023/09/10 05:17:13;;;;;;;8.60;5.13;;;16.20;99.90;;;;;;5090182;28;20181;-63
2023/09/10 05:19:39;;;;;;;9.77;5.60;;;16.30;99.90;;;;;;5099305;28;20528;-63
2023/09/10 05:22:04;;;;;;;8.10;5.07;;;16.20;99.90;;;;;;5091584;28;20687;-63
2023/09/10 05:24:30;;;;;;;13.63;4.80;;;16.30;99.90;;;;;;5091083;28;20200;-63
2023/09/10 05:26:55;;;;;;;9.40;4.90;;;16.30;99.90;;;;;;5087452;28;20173;-63
2023/09/10 05:29:21;;;;;;;11.53;5.40;;;16.30;99.90;;;;;;5087519;28;20172;-63
2023/09/10 05:31:46;;;;;;;11.33;4.93;;;16.30;99.90;;;;;;5090778;28;20183;-63
2023/09/10 05:34:13;;;;;;;8.57;4.90;;;16.40;99.90;;;;;;5090708;28;20195;-63
2023/09/10 05:36:39;;;;;;;6.50;4.10;;;16.30;99.90;;;;;;5091051;28;20234;-63
2023/09/10 05:39:04;;;;;;;9.70;4.73;;;16.40;99.90;;;;;;5091454;28;20450;-63
2023/09/10 05:41:30;;;;;;;9.53;5.00;;;16.40;99.90;;;;;;5091081;28;20211;-63
2023/09/10 05:43:56;;;;;;;8.60;5.47;;;16.40;99.90;;;;;;5090831;28;20204;-63
2023/09/10 05:46:21;;;;;;;12.57;5.30;;;16.40;99.90;;;;;;5089434;28;20209;-63
2023/09/10 05:48:47;;;;;;;12.27;5.17;;;16.50;99.90;;;;;;5091567;28;20199;-63
2023/09/10 05:51:13;;;;;;;9.57;5.50;;;16.50;99.90;;;;;;5088531;28;20173;-63
2023/09/10 05:53:40;;;;;;;11.77;5.40;;;16.50;99.90;;;;;;5096394;28;20207;-63
2023/09/10 05:56:06;;;;;;;7.70;5.37;;;16.60;99.90;;;;;;5101899;28;20545;-63
2023/09/10 05:58:31;;;;;;;10.40;5.97;;;16.60;99.90;;;;;;5090915;28;20446;-63
2023/09/10 06:00:57;;;;;;;18.67;5.57;;;16.60;99.90;;;;;;5089363;28;20197;-63
2023/09/10 06:03:23;;;;;;;14.73;7.40;;;16.70;99.90;;;;;;5093000;28;20540;-63
2023/09/10 06:05:49;;;;;;;10.17;5.07;;;16.70;99.90;;;;;;5098852;28;20184;-63
2023/09/10 06:08:15;;;;;;;9.57;6.20;;;16.80;99.90;;;;;;5087310;28;20208;-63
2023/09/10 06:10:40;;;;;;;10.00;5.50;;;16.80;99.90;;;;;;5091081;28;20783;-63
2023/09/10 06:13:06;;;;;;;8.10;5.43;;;16.80;99.90;;;;;;5091419;28;20263;-63
2023/09/10 06:15:31;;;;;;;13.43;5.47;;;16.90;99.90;;;;;;5100146;28;20176;-63
2023/09/10 06:17:57;;;;;;;7.77;5.07;;;16.90;99.90;;;;;;5098041;28;20184;-63
2023/09/10 06:20:23;;;;;;;8.83;4.90;;;17.00;99.90;;;;;;5090708;28;20184;-63
2023/09/10 06:22:49;;;;;;;11.87;6.30;;;17.00;99.90;;;;;;5090626;28;20896;-63
2023/09/10 06:25:14;;;;;;;14.73;5.20;;;17.10;99.90;;;;;;5090644;28;20172;-63
2023/09/10 06:27:40;;;;;;;16.03;6.70;;;17.20;99.90;;;;;;5086156;28;20176;-63
2023/09/10 06:30:06;;;;;;;14.90;6.13;;;17.20;99.90;;;;;;5089106;28;20242;-63
2023/09/10 06:32:31;;;;;;;11.97;5.67;;;17.30;99.90;;;;;;5094506;28;20176;-63
2023/09/10 06:34:57;;;;;;;10.97;5.87;;;17.40;99.90;;;;;;5093530;28;20806;-62
2023/09/10 06:37:24;;;;;;;15.53;5.53;;;17.50;99.90;;;;;;5099084;28;20177;-63
2023/09/10 06:39:49;;;;;;;14.00;5.73;;;17.60;99.90;;;;;;5092532;28;20632;-63
2023/09/10 06:42:15;;;;;;;11.83;6.23;;;17.70;99.90;;;;;;5091366;28;20465;-63
2023/09/10 06:44:43;;;;;;;9.27;4.40;;;17.80;99.90;;;;;;5093516;28;20184;-63
2023/09/10 06:47:10;;;;;;;9.73;5.50;;;17.90;99.90;;;;;;5093728;28;20529;-63
2023/09/10 06:49:36;;;;;;;12.90;6.60;;;18.10;99.90;;;;;;5093784;28;20894;-63
2023/09/10 06:52:01;;;;;;;9.80;4.93;;;18.30;99.90;;;;;;5086658;28;20441;-61
2023/09/10 06:54:27;;;;;;;13.90;6.40;;;18.50;99.90;;;;;;5091113;28;20229;-62
2023/09/10 06:56:53;;;;;;;12.13;6.10;;;18.70;99.90;;;;;;5094757;28;20655;-62
2023/09/10 06:59:18;;;;;;;13.20;5.90;;;18.90;99.90;;;;;;5099815;28;20208;-62
2023/09/10 07:01:44;;;;;;;8.50;4.60;;;19.10;99.90;;;;;;5086198;28;20659;-62
2023/09/10 07:04:23;;;;;;;9.83;5.90;;;19.30;99.90;;;;;;5096066;28;20222;-62
2023/09/10 07:06:50;;;;;;;14.73;5.37;;;19.50;99.90;;;;;;5085723;28;20190;-62
2023/09/10 07:09:21;;;;;;;10.87;5.30;;;19.80;99.90;;;;;;5092981;28;21214;-62
2023/09/10 07:11:46;;;;;;;8.40;4.67;;;20.30;99.90;;;;;;5093848;28;20410;-62
2023/09/10 07:14:12;;;;;;;6.77;4.33;;;20.70;99.90;;;;;;5093067;28;20442;-62
2023/09/10 07:16:38;;;;;;;11.37;5.57;;;21.10;99.90;;;;;;5093001;28;20180;-62
2023/09/10 07:19:03;;;;;;;15.97;5.00;;;21.50;99.90;;;;;;5093352;28;20255;-62
2023/09/10 07:21:29;;;;;;;8.70;4.83;;;21.90;99.90;;;;;;5093147;28;20180;-62
2023/09/10 07:23:54;;;;;;;6.50;3.90;;;22.60;99.90;;;;;;5085935;28;20200;-62
2023/09/10 07:26:20;;;;;;;7.40;4.33;;;23.20;99.90;;;;;;5092846;28;20221;-62
2023/09/10 07:28:46;;;;;;;10.97;4.73;;;23.80;99.90;;;;;;5087734;28;20210;-63
2023/09/10 07:31:11;;;;;;;12.70;4.90;;;24.50;99.90;;;;;;5092792;28;20180;-62
2023/09/10 07:33:37;;;;;;;7.97;4.33;;;25.00;99.90;;;;;;5093044;28;20647;-63
2023/09/10 07:36:03;;;;;;;9.27;3.80;;;25.50;99.90;;;;;;5092411;28;20179;-63
2023/09/10 07:38:28;;;;;;;14.90;4.73;;;26.10;99.90;;;;;;5083428;28;20196;-62
2023/09/10 07:40:54;;;;;;;11.40;4.97;;;26.40;99.90;;;;;;5086164;28;20211;-63
2023/09/10 07:43:22;;;;;;;6.30;4.40;;;27.10;99.90;;;;;;5088403;28;20204;-63
2023/09/10 07:45:49;;;;;;;10.10;4.87;;;27.00;99.70;;;;;;5092692;28;20172;-62
2023/09/10 07:48:15;;;;;;;6.13;3.90;;;26.90;99.90;;;;;;5085042;28;20176;-63
2023/09/10 07:50:54;;;;;;;7.90;3.63;;;27.10;99.00;;;;;;5087850;28;20172;-62
2023/09/10 07:53:20;;;;;;;9.23;4.32;;;27.30;98.80;;;;;;5085736;28;20636;-63
2023/09/10 07:55:45;;;;;;;13.45;4.45;;;27.40;98.40;;;;;;5091625;28;20191;-63
2023/09/10 07:58:11;;;;;;;11.00;4.28;;;27.20;98.30;;;;;;5102352;28;20171;-63
2023/09/10 08:00:37;;;;;;;8.82;4.13;;;27.50;98.00;;;;;;5102889;28;20186;-63
2023/09/10 08:03:03;;;;;;;20.92;4.47;;;27.10;97.40;;;;;;5092435;28;20212;-63
2023/09/10 08:05:30;;;;;;;5.30;3.27;;;27.30;97.10;;;;;;5092284;28;20872;-63
2023/09/10 08:08:01;;;;;;;8.02;4.30;;;27.30;97.10;;;;;;5092382;28;20275;-63
2023/09/10 08:10:27;;;;;;;8.70;3.67;;;27.60;96.80;;;;;;5092484;28;20182;-63
2023/09/10 08:12:52;;;;;;;14.07;4.50;;;27.40;96.60;;;;;;5092172;28;20237;-63
2023/09/10 08:15:18;;;;;;;6.53;3.10;;;27.50;96.20;;;;;;5092186;28;20188;-63
2023/09/10 08:17:43;;;;;;;7.40;3.60;;;27.40;96.30;;;;;;5092235;28;20184;-63
2023/09/10 08:20:09;;;;;;;15.85;3.95;;;27.60;96.20;;;;;;5091810;28;20222;-64
2023/09/10 08:22:35;;;;;;;5.55;3.25;;;28.00;94.90;;;;;;5080098;28;20212;-63
2023/09/10 08:25:04;;;;;;;8.25;4.50;;;27.90;95.00;;;;;;5090709;28;20180;-63
2023/09/10 08:27:29;;;;;;;8.48;4.25;;;27.80;94.20;;;;;;5081432;28;20203;-63
2023/09/10 08:29:55;;;;;;;6.55;3.15;;;27.90;94.10;;;;;;5090972;28;20620;-63
2023/09/10 08:32:20;;;;;;;8.98;3.92;;;28.30;93.20;;;;;;5091084;28;20230;-63
2023/09/10 08:34:46;;;;;;;10.00;3.95;;;28.40;93.70;;;;;;5090687;28;20184;-63
2023/09/10 08:37:12;;;;;;;9.85;3.67;;;28.40;94.10;;;;;;5091348;28;20245;-63
2023/09/10 08:39:38;;;;;;;8.65;2.88;;;28.80;92.60;;;;;;5091439;28;20187;-63
2023/09/10 08:42:34;;;;;;;10.00;3.90;;;28.90;91.90;;;;;;5091349;28;20191;-63
2023/09/10 08:45:07;;;;;;;5.57;3.42;;;28.50;91.90;;;;;;5091441;28;20190;-63
2023/09/10 08:47:40;;;;;;;16.75;3.90;;;28.70;92.00;;;;;;5090052;28;20184;-63
2023/09/10 08:50:13;;;;;;;8.07;4.78;;;29.00;91.50;;;;;;5102400;28;20172;-63
2023/09/10 08:52:41;;;;;;;7.60;4.13;;;29.20;90.80;;;;;;5100724;28;20248;-63
2023/09/10 08:55:07;;;;;;;17.40;3.83;;;29.50;90.00;;;;;;5091651;28;20521;-63
2023/09/10 08:57:38;;;;;;;9.80;3.65;;;29.20;90.40;;;;;;5091676;28;20217;-61
2023/09/10 09:00:12;;;;;;;11.13;3.50;;;29.30;91.90;;;;;;5091715;28;20527;-61
2023/09/10 09:02:44;;;;;;;10.40;3.67;;;29.60;91.30;;;;;;5090778;28;20215;-61
2023/09/10 09:05:10;;;;;;;8.23;3.60;;;29.80;90.40;;;;;;5091346;28;20183;-61
2023/09/10 09:07:47;;;;;;;7.05;3.30;;;29.60;91.40;;;;;;5091066;28;20180;-61
2023/09/10 09:10:19;;;;;;;8.63;4.15;;;29.80;90.20;;;;;;5091663;28;20176;-61
2023/09/10 09:12:45;;;;;;;5.45;3.28;;;30.00;90.80;;;;;;5078353;28;20188;-61
2023/09/10 09:15:11;;;;;;;9.45;3.88;;;29.90;90.60;;;;;;5091172;28;20179;-62
2023/09/10 09:17:38;;;;;;;5.72;3.80;;;30.20;90.10;;;;;;5091036;28;20210;-61
2023/09/10 09:20:09;;;;;;;8.18;3.63;;;30.20;89.30;;;;;;5083500;28;20525;-61
2023/09/10 09:22:35;;;;;;;8.18;3.42;;;30.00;89.50;;;;;;5091156;28;20208;-61
2023/09/10 09:25:03;;;;;;;14.15;3.72;;;29.80;90.40;;;;;;5091041;28;20226;-62
2023/09/10 09:27:29;;;;;;;7.40;3.30;;;30.10;90.40;;;;;;5081690;28;20542;-62
2023/09/10 09:29:55;;;;;;;12.27;5.20;;;30.20;89.20;;;;;;5091000;28;20184;-62
2023/09/10 09:32:21;;;;;;;6.53;3.00;;;30.50;88.00;;;;;;5091014;28;20222;-62
2023/09/10 09:34:46;;;;;;;6.10;3.78;;;30.00;88.20;;;;;;5090665;28;20655;-61
2023/09/10 09:37:19;;;;;;;7.60;3.88;;;30.40;87.00;;;;;;5090816;28;20263;-61
2023/09/10 09:39:45;;;;;;;12.88;3.42;;;30.10;87.70;;;;;;5091146;28;20637;-61
2023/09/10 09:42:11;;;;;;;4.80;3.67;;;30.00;87.30;;;;;;5091120;28;20211;-61
2023/09/10 09:44:36;;;;;;;7.80;3.63;;;30.20;86.80;;;;;;5090330;28;20180;-61
2023/09/10 09:47:02;;;;;;;5.57;3.45;;;30.20;87.30;;;;;;5085324;28;20186;-61
2023/09/10 09:49:28;;;;;;;5.97;3.30;;;29.90;88.30;;;;;;5091182;28;20184;-61
2023/09/10 09:51:54;;;;;;;5.80;3.58;;;29.30;88.80;;;;;;5091430;28;20179;-61
2023/09/10 09:54:20;;;;;;;7.60;3.40;;;29.30;89.70;;;;;;5090378;28;20179;-61
2023/09/10 09:56:46;;;;;;;6.03;3.40;;;29.20;89.00;;;;;;5091196;28;20565;-61
2023/09/10 09:59:12;;;;;;;8.90;3.50;;;28.70;89.20;;;;;;5090866;28;20181;-61
2023/09/10 10:01:39;;;;;;;6.30;3.47;;;28.20;91.50;;;;;;5093050;28;20532;-61
2023/09/10 10:04:05;;;;;;;8.85;4.13;;;28.20;90.60;;;;;;5095020;28;20256;-61
2023/09/10 10:06:31;;;;;;;7.32;3.63;;;28.10;90.40;;;;;;5094791;28;20180;-61
2023/09/10 10:08:57;;;;;;;5.88;3.22;;;28.00;91.60;;;;;;5094513;28;20182;-61
2023/09/10 10:11:30;;;;;;;7.28;3.45;;;28.10;90.70;;;;;;5094734;28;20936;-61
2023/09/10 10:13:59;;;;;;;7.88;4.10;;;28.10;91.80;;;;;;5094473;28;20549;-61
2023/09/10 10:16:28;;;;;;;5.50;3.47;;;28.30;90.40;;;;;;5093820;28;20176;-61
2023/09/10 10:18:54;;;;;;;8.73;3.88;;;28.20;89.50;;;;;;5090128;28;20176;-61
2023/09/10 10:21:21;;;;;;;8.70;4.35;;;28.20;90.80;;;;;;5090799;28;20199;-61
2023/09/10 10:23:48;;;;;;;8.63;3.90;;;28.10;90.70;;;;;;5094019;28;20231;-61
2023/09/10 10:26:16;;;;;;;6.13;3.47;;;28.20;91.10;;;;;;5094147;28;20240;-63
2023/09/10 10:28:44;;;;;;;9.90;3.73;;;28.20;90.30;;;;;;5086614;28;20275;-63
2023/09/10 10:31:15;;;;;;;11.70;3.17;;;28.10;89.70;;;;;;5093749;28;20180;-63
2023/09/10 10:34:11;;;;;;;10.30;3.67;;;28.00;90.30;;;;;;5094189;28;20183;-63
2023/09/10 10:36:49;;;;;;;10.02;4.28;;;28.10;90.70;;;;;;5090107;28;20199;-63
2023/09/10 10:39:16;;;;;;;10.27;3.83;;;28.20;91.80;;;;;;5094606;28;20179;-61
2023/09/10 10:41:50;;;;;;;6.97;3.55;;;28.40;91.70;;;;;;5093964;28;20212;-61
2023/09/10 10:44:24;;;;;;;9.43;3.85;;;28.40;91.60;;;;;;5093750;28;20176;-61
2023/09/10 10:47:22;;;;;;;6.15;3.17;;;28.40;91.20;;;;;;5093593;28;20175;-61
2023/09/10 10:49:56;;;;;;;10.27;3.92;;;28.40;90.60;;;;;;5093697;28;20241;-60
2023/09/10 10:52:30;;;;;;;17.50;4.40;;;28.40;91.00;;;;;;5093714;28;20573;-61
2023/09/10 10:54:56;;;;;;;7.18;3.88;;;28.40;90.80;;;;;;5093732;28;20582;-61
2023/09/10 10:57:24;;;;;;;5.38;3.28;;;28.70;90.60;;;;;;5093898;28;20301;-61
2023/09/10 10:59:50;;;;;;;16.75;3.55;;;28.90;88.70;;;;;;5094099;28;20183;-60
2023/09/10 11:02:22;;;;;;;11.50;3.50;;;28.90;88.50;;;;;;5093197;28;20211;-61
2023/09/10 11:05:05;;;;;;;9.95;4.05;;;29.00;89.40;;;;;;5093282;28;20199;-61
2023/09/10 11:07:31;;;;;;;15.40;4.05;;;29.10;90.10;;;;;;5093242;28;20859;-60
2023/09/10 11:09:58;;;;;;;17.60;4.18;;;29.30;87.10;;;;;;5093513;28;20565;-63
2023/09/10 11:12:25;;;;;;;9.93;3.92;;;29.30;89.50;;;;;;5093119;28;20188;-61
2023/09/10 11:14:59;;;;;;;8.15;3.00;;;29.20;87.80;;;;;;5092692;28;20602;-61
2023/09/10 11:17:32;;;;;;;5.15;3.38;;;29.50;87.00;;;;;;5093008;28;20175;-63
2023/09/10 11:19:58;;;;;;;9.85;3.75;;;29.50;87.90;;;;;;5084774;28;20175;-63
2023/09/10 11:22:25;;;;;;;6.63;3.42;;;29.60;85.90;;;;;;5093137;28;20735;-63
2023/09/10 11:25:01;;;;;;;7.50;3.15;;;29.60;88.40;;;;;;5092589;28;20176;-63
2023/09/10 11:27:27;;;;;;;9.25;3.40;;;29.80;87.00;;;;;;5083602;28;20210;-63
2023/09/10 11:30:11;;;;;;;8.88;2.90;;;29.80;85.00;;;;;;5092706;28;20176;-62
2023/09/10 11:32:37;;;;;;;7.55;3.30;;;29.70;85.40;;;;;;5092940;28;20194;-63
2023/09/10 11:35:18;;;;;;;9.43;3.70;;;29.70;86.10;;;;;;5092254;28;20180;-63
2023/09/10 11:37:55;;;;;;;6.07;3.40;;;29.80;86.00;;;;;;5093188;28;20176;-63
2023/09/10 11:40:21;;;;;;;6.28;3.72;;;29.90;85.00;;;;;;5080715;28;20191;-62
2023/09/10 11:42:48;;;;;;;6.78;3.47;;;30.10;83.90;;;;;;5092915;28;20204;-61
2023/09/10 11:45:15;;;;;;;8.77;4.57;;;30.00;85.20;;;;;;5092172;28;20183;-62
2023/09/10 11:47:42;;;;;;;5.97;3.03;;;30.10;84.00;;;;;;5092360;28;20168;-62
2023/09/10 11:50:09;;;;;;;7.40;3.58;;;30.00;83.10;;;;;;5093046;28;20180;-63
2023/09/10 11:52:35;;;;;;;9.60;3.83;;;30.10;82.30;;;;;;5092540;28;20234;-63
2023/09/10 11:55:02;;;;;;;6.38;3.13;;;30.20;82.20;;;;;;5092451;28;20218;-63
2023/09/10 11:57:28;;;;;;;8.02;3.35;;;30.10;83.00;;;;;;5092320;28;20578;-62
2023/09/10 11:59:54;;;;;;;6.32;3.58;;;30.50;81.60;;;;;;5092699;28;20231;-63
2023/09/10 12:02:21;;;;;;;7.63;3.33;;;30.80;82.90;;;;;;5091874;28;20713;-61
2023/09/10 12:04:47;;;;;;;5.85;3.20;;;31.00;81.80;;;;;;5091974;28;20180;-61
2023/09/10 12:07:13;;;;;;;6.88;3.75;;;31.00;81.00;;;;;;5091923;28;20176;-61
2023/09/10 12:09:38;;;;;;;5.35;3.90;;;30.80;79.50;;;;;;5092614;28;20263;-61
2023/09/10 12:12:18;;;;;;;7.85;3.97;;;30.70;81.10;;;;;;5091778;28;20176;-62
2023/09/10 12:14:44;;;;;;;6.10;3.20;;;30.70;79.10;;;;;;5091907;28;20180;-61
2023/09/10 12:17:10;;;;;;;7.93;3.35;;;30.80;79.90;;;;;;5091727;28;20176;-61
2023/09/10 12:19:37;;;;;;;6.45;2.80;;;30.80;82.80;;;;;;5085406;28;20199;-61
2023/09/10 12:22:04;;;;;;;6.70;3.75;;;31.00;80.50;;;;;;5087376;28;20175;-61
2023/09/10 12:24:30;;;;;;;5.57;3.13;;;31.00;79.40;;;;;;5090722;28;20225;-61
2023/09/10 12:26:56;;;;;;;6.53;3.15;;;30.60;78.40;;;;;;5092083;28;20179;-61
2023/09/10 12:29:22;;;;;;;4.32;3.22;;;31.10;77.00;;;;;;5091732;28;20204;-61
2023/09/10 12:31:52;;;;;;;6.20;3.28;;;31.20;76.40;;;;;;5092125;28;20215;-61
2023/09/10 12:34:19;;;;;;;5.57;3.20;;;31.00;76.40;;;;;;5091803;28;20194;-61
2023/09/10 12:36:46;;;;;;;6.35;3.30;;;30.80;77.10;;;;;;5092212;28;20199;-61
2023/09/10 12:39:22;;;;;;;10.65;3.35;;;30.60;79.60;;;;;;5091740;28;20585;-61
2023/09/10 12:41:49;;;;;;;4.30;2.55;;;30.70;76.90;;;;;;5091884;28;20171;-61
2023/09/10 12:44:15;;;;;;;7.63;3.30;;;30.30;78.30;;;;;;5090889;28;20195;-62